Time;durP1;ratioP1;P1;durP2;ratioP2;P2;SDS_P1;SDS_P2;PMS_P1;PMS_P2;Temp;Humidity;BMP_temperature;BMP_pressure;BME280_temperature;BME280_humidity;BME280_pressure;Samples;Min_cycle;Max_cycle;Signal;HPM_P1;HPM_P2
2022/06/27 00:02:06;;;;;;;20.75;19.63;;;;;;;;;;5053355;28;20470;-73
2022/06/27 00:04:32;;;;;;;21.33;20.17;;;;;;;;;;5054057;28;20040;-72
2022/06/27 00:06:57;;;;;;;21.35;20.17;;;;;;;;;;5053550;28;20032;-71
2022/06/27 00:09:23;;;;;;;20.83;19.70;;;;;;;;;;5051444;28;20470;-72
2022/06/27 00:11:48;;;;;;;20.35;19.25;;;;;;;;;;5053716;28;20043;-71
2022/06/27 00:14:13;;;;;;;21.50;20.30;;;;;;;;;;5053855;28;20033;-71
2022/06/27 00:16:39;;;;;;;20.42;19.33;;;;;;;;;;5053786;28;20170;-71
2022/06/27 00:19:04;;;;;;;20.30;19.20;;;;;;;;;;5056021;28;20384;-70
2022/06/27 00:21:29;;;;;;;24.25;22.98;;;;;;;;;;5052118;28;20040;-70
2022/06/27 00:23:55;;;;;;;22.85;21.65;;;;;;;;;;5056547;28;20388;-69
2022/06/27 00:26:20;;;;;;;23.48;22.23;;;;;;;;;;5054380;28;20028;-69
2022/06/27 00:28:46;;;;;;;26.73;25.33;;;;;;;;;;5051651;28;20111;-69
2022/06/27 00:31:11;;;;;;;24.23;22.95;;;;;;;;;;5055874;28;20071;-70
2022/06/27 00:33:37;;;;;;;24.13;22.80;;;;;;;;;;5055426;28;20057;-69
2022/06/27 00:36:02;;;;;;;26.48;25.05;;;;;;;;;;5051041;28;20033;-70
2022/06/27 00:38:28;;;;;;;30.38;28.77;;;;;;;;;;5047850;28;20028;-70
2022/06/27 00:40:53;;;;;;;32.38;30.67;;;;;;;;;;5053563;28;20154;-70
2022/06/27 00:43:19;;;;;;;29.50;27.92;;;;;;;;;;5056296;28;20405;-70
2022/06/27 00:45:44;;;;;;;29.60;28.05;;;;;;;;;;5053113;28;20113;-69
2022/06/27 00:48:10;;;;;;;54.75;52.03;;;;;;;;;;5050016;28;20028;-69
2022/06/27 00:50:35;;;;;;;56.42;53.58;;;;;;;;;;5051425;28;20529;-70
2022/06/27 00:53:01;;;;;;;70.18;66.65;;;;;;;;;;5051547;28;20033;-71
2022/06/27 00:55:26;;;;;;;71.78;68.20;;;;;;;;;;5051834;28;20486;-71
2022/06/27 00:57:52;;;;;;;79.55;74.00;;;;;;;;;;5050514;28;20081;-72
2022/06/27 01:00:18;;;;;;;67.18;63.83;;;;;;;;;;5049748;28;20131;-73
2022/06/27 01:02:43;;;;;;;91.07;86.55;;;;;;;;;;5052757;28;20115;-70
2022/06/27 01:05:13;;;;;;;101.30;96.32;;;;;;;;;;5049864;28;20127;-74
2022/06/27 01:07:39;;;;;;;96.82;92.00;;;;;;;;;;5051036;28;20068;-74
2022/06/27 01:10:05;;;;;;;104.10;98.95;;;;;;;;;;5054891;28;20061;-75
2022/06/27 01:12:31;;;;;;;103.55;98.43;;;;;;;;;;5049752;28;20710;-75
2022/06/27 01:14:57;;;;;;;111.05;105.60;;;;;;;;;;5049800;28;20056;-75
2022/06/27 01:17:24;;;;;;;116.72;110.90;;;;;;;;;;5053082;28;20034;-74
2022/06/27 01:19:49;;;;;;;111.50;106.00;;;;;;;;;;5051188;28;20132;-74
2022/06/27 01:22:16;;;;;;;113.18;107.32;;;;;;;;;;5051107;28;20537;-72
2022/06/27 01:24:42;;;;;;;111.75;106.25;;;;;;;;;;5051958;28;20167;-73
2022/06/27 01:27:08;;;;;;;116.95;111.18;;;;;;;;;;5056893;28;20485;-73
2022/06/27 01:29:33;;;;;;;110.90;105.45;;;;;;;;;;5055520;28;20082;-73
2022/06/27 01:31:58;;;;;;;126.10;119.85;;;;;;;;;;5054038;28;20033;-74
2022/06/27 01:34:24;;;;;;;126.82;120.60;;;;;;;;;;5058686;28;20349;-73
2022/06/27 01:36:50;;;;;;;116.53;110.78;;;;;;;;;;5058834;28;20472;-74
2022/06/27 01:39:20;;;;;;;97.32;92.50;;;;;;;;;;5057843;28;20033;-74
2022/06/27 01:41:48;;;;;;;;;;;;;;;;;;5061430;28;20028;-74
2022/06/27 01:44:14;;;;;;;78.47;74.57;;;;;;;;;;5055933;28;19916;-73
2022/06/27 01:47:08;;;;;;;73.13;69.43;;;;;;;;;;5057623;28;20483;-73
2022/06/27 01:49:35;;;;;;;77.05;73.22;;;;;;;;;;5050851;28;20056;-73
2022/06/27 01:52:02;;;;;;;87.78;83.38;;;;;;;;;;5059043;28;20570;-73
2022/06/27 01:54:28;;;;;;;87.38;83.05;;;;;;;;;;5055125;28;20060;-72
2022/06/27 01:56:53;;;;;;;73.80;70.10;;;;;;;;;;5058847;28;20571;-71
2022/06/27 01:59:30;;;;;;;85.30;81.07;;;;;;;;;;5056019;28;20040;-70
2022/06/27 02:01:58;;;;;;;90.68;86.10;;;;;;;;;;5057145;28;20792;-72
2022/06/27 02:04:25;;;;;;;101.75;96.70;;;;;;;;;;5057942;28;20067;-71
2022/06/27 02:06:52;;;;;;;86.63;82.30;;;;;;;;;;5057441;28;20021;-70
2022/06/27 02:09:17;;;;;;;99.82;94.90;;;;;;;;;;5058085;28;20048;-70
2022/06/27 02:11:45;;;;;;;78.15;74.25;;;;;;;;;;5058738;28;20037;-71
2022/06/27 02:14:10;;;;;;;66.68;63.33;;;;;;;;;;5055426;28;20425;-71
2022/06/27 02:16:37;;;;;;;94.13;89.35;;;;;;;;;;5058606;28;20119;-72
2022/06/27 02:19:04;;;;;;;83.20;79.03;;;;;;;;;;5059554;28;20036;-72
2022/06/27 02:21:30;;;;;;;100.78;95.78;;;;;;;;;;5057519;28;20094;-72
2022/06/27 02:23:56;;;;;;;137.40;130.63;;;;;;;;;;5045897;28;20032;-72
2022/06/27 02:26:27;;;;;;;132.32;125.22;;;;;;;;;;5055697;28;20033;-72
2022/06/27 02:28:53;;;;;;;115.28;109.53;;;;;;;;;;5057669;28;20111;-73
2022/06/27 02:31:19;;;;;;;125.25;119.05;;;;;;;;;;5054591;28;20108;-73
2022/06/27 02:33:46;;;;;;;99.35;94.43;;;;;;;;;;5057422;28;20089;-74
2022/06/27 02:36:19;;;;;;;79.75;75.80;;;;;;;;;;5055221;28;20025;-74
2022/06/27 02:38:50;;;;;;;56.33;53.42;;;;;;;;;;5058527;28;20715;-74
2022/06/27 02:41:17;;;;;;;50.80;48.22;;;;;;;;;;5055737;28;20086;-74
2022/06/27 02:43:58;;;;;;;51.70;49.10;;;;;;;;;;5056795;28;20043;-75
2022/06/27 02:46:24;;;;;;;54.80;52.03;;;;;;;;;;5067602;28;20052;-75
2022/06/27 02:48:50;;;;;;;58.30;55.33;;;;;;;;;;5057009;28;20108;-74
2022/06/27 02:51:22;;;;;;;88.03;83.63;;;;;;;;;;5060206;28;20032;-74
2022/06/27 02:54:02;;;;;;;78.45;74.45;;;;;;;;;;5054575;28;20079;-75
2022/06/27 02:56:29;;;;;;;100.32;95.32;;;;;;;;;;5059382;28;20035;-75
2022/06/27 02:59:09;;;;;;;60.58;57.47;;;;;;;;;;5057600;28;20133;-75
2022/06/27 03:01:37;;;;;;;;;;;;;;;;;;5056939;28;20037;-75
2022/06/27 03:04:03;;;;;;;29.60;28.05;;;;;;;;;;5053928;28;20003;-75
2022/06/27 03:06:29;;;;;;;43.83;41.58;;;;;;;;;;5057302;28;20167;-74
2022/06/27 03:08:54;;;;;;;48.00;45.55;;;;;;;;;;5056889;28;20036;-74
2022/06/27 03:11:22;;;;;;;39.53;37.47;;;;;;;;;;5053875;28;20543;-74
2022/06/27 03:13:49;;;;;;;42.40;40.25;;;;;;;;;;5057784;28;20044;-74
2022/06/27 03:16:16;;;;;;;39.03;36.95;;;;;;;;;;5060427;28;20619;-74
2022/06/27 03:18:42;;;;;;;65.68;62.40;;;;;;;;;;5059975;28;20111;-74
2022/06/27 03:21:08;;;;;;;37.33;35.40;;;;;;;;;;5058354;28;20235;-74
2022/06/27 03:23:33;;;;;;;42.70;40.42;;;;;;;;;;5053746;28;20040;-74
2022/06/27 03:25:59;;;;;;;30.98;29.33;;;;;;;;;;5057443;28;20032;-74
2022/06/27 03:28:25;;;;;;;32.83;31.08;;;;;;;;;;5056043;28;20040;-73
2022/06/27 03:30:50;;;;;;;30.63;29.02;;;;;;;;;;5054794;28;20055;-73
2022/06/27 03:33:15;;;;;;;30.13;28.50;;;;;;;;;;5056414;28;20122;-73
2022/06/27 03:35:42;;;;;;;30.52;28.90;;;;;;;;;;5051743;28;20035;-72
2022/06/27 03:38:09;;;;;;;26.15;24.77;;;;;;;;;;5056393;28;20707;-71
2022/06/27 03:40:35;;;;;;;26.55;25.10;;;;;;;;;;5054395;28;20036;-72
2022/06/27 03:43:00;;;;;;;23.52;22.20;;;;;;;;;;5054086;28;20124;-72
2022/06/27 03:45:26;;;;;;;25.65;24.25;;;;;;;;;;5057725;28;20029;-71
2022/06/27 03:47:54;;;;;;;27.55;26.05;;;;;;;;;;5063311;28;20106;-71
2022/06/27 03:50:21;;;;;;;22.95;21.73;;;;;;;;;;5052802;28;20051;-68
2022/06/27 03:52:47;;;;;;;25.73;24.33;;;;;;;;;;5059943;28;20063;-71
2022/06/27 03:55:13;;;;;;;24.67;23.35;;;;;;;;;;5055907;28;20771;-71
2022/06/27 03:57:47;;;;;;;26.65;25.20;;;;;;;;;;5058008;28;20029;-71
2022/06/27 04:00:13;;;;;;;28.23;26.73;;;;;;;;;;5055959;28;20024;-71
2022/06/27 04:02:38;;;;;;;31.60;29.90;;;;;;;;;;5054884;28;20040;-70
2022/06/27 04:05:04;;;;;;;23.42;22.13;;;;;;;;;;5055228;28;20062;-71
2022/06/27 04:07:29;;;;;;;28.42;26.90;;;;;;;;;;5058189;28;20044;-70
2022/06/27 04:09:55;;;;;;;28.83;27.25;;;;;;;;;;5053551;28;20029;-69
2022/06/27 04:12:21;;;;;;;22.30;21.10;;;;;;;;;;5051187;28;20033;-70
2022/06/27 04:14:46;;;;;;;21.30;19.98;;;;;;;;;;5053665;28;20024;-69
2022/06/27 04:17:12;;;;;;;22.42;21.20;;;;;;;;;;5057373;28;20564;-70
2022/06/27 04:19:37;;;;;;;22.38;21.15;;;;;;;;;;5053920;28;20041;-71
2022/06/27 04:22:03;;;;;;;35.60;33.78;;;;;;;;;;5053973;28;20108;-70
2022/06/27 04:24:28;;;;;;;41.88;39.72;;;;;;;;;;5055492;28;20704;-70
2022/06/27 04:26:54;;;;;;;37.90;35.80;;;;;;;;;;5059161;28;20040;-69
2022/06/27 04:29:19;;;;;;;27.77;26.27;;;;;;;;;;5055997;28;20032;-69
2022/06/27 04:31:44;;;;;;;39.33;37.30;;;;;;;;;;5054001;28;20698;-69
2022/06/27 04:34:12;;;;;;;37.83;35.88;;;;;;;;;;5052729;28;20032;-69
2022/06/27 04:36:38;;;;;;;28.95;27.40;;;;;;;;;;5051965;28;20066;-71
2022/06/27 04:39:06;;;;;;;30.35;28.75;;;;;;;;;;5051856;28;20048;-69
2022/06/27 04:41:31;;;;;;;29.80;28.17;;;;;;;;;;5053112;28;20036;-69
2022/06/27 04:43:57;;;;;;;38.75;36.60;;;;;;;;;;5051137;28;20052;-68
2022/06/27 04:46:23;;;;;;;26.40;24.92;;;;;;;;;;5053160;28;20772;-71
2022/06/27 04:48:48;;;;;;;31.30;29.65;;;;;;;;;;5054797;28;20041;-70
2022/06/27 04:51:14;;;;;;;24.23;22.92;;;;;;;;;;5054904;28;20116;-72
2022/06/27 04:53:40;;;;;;;81.35;77.28;;;;;;;;;;5052032;28;20040;-71
2022/06/27 04:56:08;;;;;;;99.55;94.57;;;;;;;;;;5052228;28;20025;-69
2022/06/27 04:58:34;;;;;;;34.67;32.88;;;;;;;;;;5053415;28;20090;-70
2022/06/27 05:01:00;;;;;;;33.83;32.03;;;;;;;;;;5057296;28;20040;-70
2022/06/27 05:03:26;;;;;;;39.47;37.40;;;;;;;;;;5050113;28;20586;-70
2022/06/27 05:05:52;;;;;;;101.57;96.45;;;;;;;;;;5056417;28;20029;-69
2022/06/27 05:08:17;;;;;;;23.58;22.27;;;;;;;;;;5055101;28;20036;-69
2022/06/27 05:10:43;;;;;;;27.42;25.92;;;;;;;;;;5051295;28;20033;-69
2022/06/27 05:13:09;;;;;;;26.65;25.20;;;;;;;;;;5050300;28;20044;-70
2022/06/27 05:15:36;;;;;;;24.52;23.17;;;;;;;;;;5051917;28;20058;-69
2022/06/27 05:18:03;;;;;;;28.15;26.67;;;;;;;;;;5058793;28;20151;-69
2022/06/27 05:20:30;;;;;;;25.08;23.73;;;;;;;;;;5054479;28;20366;-69
2022/06/27 05:22:56;;;;;;;22.98;21.73;;;;;;;;;;5052023;28;20033;-69
2022/06/27 05:25:22;;;;;;;24.63;23.15;;;;;;;;;;5055040;28;20060;-70
2022/06/27 05:27:47;;;;;;;24.10;22.80;;;;;;;;;;5053768;28;20058;-73
2022/06/27 05:30:13;;;;;;;26.25;24.83;;;;;;;;;;5056822;28;20052;-72
2022/06/27 05:32:39;;;;;;;24.20;22.90;;;;;;;;;;5054100;28;20028;-69
2022/06/27 05:35:06;;;;;;;21.45;20.25;;;;;;;;;;5050390;28;20021;-70
2022/06/27 05:37:31;;;;;;;21.90;19.83;;;;;;;;;;5051048;28;20470;-70
2022/06/27 05:39:57;;;;;;;24.45;23.13;;;;;;;;;;5058326;28;20045;-69
2022/06/27 05:42:22;;;;;;;30.52;28.95;;;;;;;;;;5053806;28;20545;-70
2022/06/27 05:44:48;;;;;;;35.47;33.63;;;;;;;;;;5054389;28;20052;-70
2022/06/27 05:47:13;;;;;;;27.55;26.05;;;;;;;;;;5050830;28;20055;-70
2022/06/27 05:49:39;;;;;;;22.55;21.23;;;;;;;;;;5051981;28;20033;-70
2022/06/27 05:52:04;;;;;;;23.27;22.02;;;;;;;;;;5053165;28;20589;-69
2022/06/27 05:54:30;;;;;;;29.50;27.95;;;;;;;;;;5055410;28;20040;-69
2022/06/27 05:56:56;;;;;;;28.58;27.08;;;;;;;;;;5050372;28;20067;-69
2022/06/27 05:59:22;;;;;;;29.67;28.13;;;;;;;;;;5049873;28;21384;-70
2022/06/27 06:01:49;;;;;;;28.27;26.73;;;;;;;;;;5053089;28;20044;-69
2022/06/27 06:04:16;;;;;;;32.45;30.73;;;;;;;;;;5058340;28;20107;-70
2022/06/27 06:06:43;;;;;;;24.95;23.35;;;;;;;;;;5053241;28;20029;-69
2022/06/27 06:09:09;;;;;;;26.92;25.48;;;;;;;;;;5052139;28;20033;-71
2022/06/27 06:11:35;;;;;;;23.40;22.15;;;;;;;;;;5052064;28;20362;-68
2022/06/27 06:14:02;;;;;;;18.65;17.60;;;;;;;;;;5054728;28;20483;-69
2022/06/27 06:16:27;;;;;;;21.15;20.00;;;;;;;;;;5052757;28;20047;-69
2022/06/27 06:18:53;;;;;;;19.40;18.30;;;;;;;;;;5051229;28;20040;-70
2022/06/27 06:21:20;;;;;;;20.40;19.25;;;;;;;;;;5058188;28;20028;-69
2022/06/27 06:23:46;;;;;;;14.63;13.80;;;;;;;;;;5056957;28;20033;-68
2022/06/27 06:26:16;;;;;;;18.33;17.25;;;;;;;;;;5059749;28;20035;-71
2022/06/27 06:28:48;;;;;;;16.42;15.48;;;;;;;;;;5052319;28;20488;-70
2022/06/27 06:31:21;;;;;;;20.63;19.50;;;;;;;;;;5059748;28;20055;-69
2022/06/27 06:33:48;;;;;;;19.30;18.20;;;;;;;;;;5057712;28;20156;-69
2022/06/27 06:36:14;;;;;;;27.40;25.88;;;;;;;;;;5057365;28;20090;-69
2022/06/27 06:38:39;;;;;;;26.50;25.10;;;;;;;;;;5056944;28;20206;-69
2022/06/27 06:41:05;;;;;;;24.27;22.98;;;;;;;;;;5059096;28;20028;-69
2022/06/27 06:43:30;;;;;;;19.90;18.80;;;;;;;;;;5060075;28;20024;-69
2022/06/27 06:45:57;;;;;;;26.20;24.58;;;;;;;;;;5056237;28;20115;-69
2022/06/27 06:48:23;;;;;;;25.88;24.52;;;;;;;;;;5054561;28;20029;-69
2022/06/27 06:50:49;;;;;;;26.55;25.13;;;;;;;;;;5056971;28;20476;-69
2022/06/27 06:53:14;;;;;;;22.25;21.02;;;;;;;;;;5058118;28;20119;-69
2022/06/27 06:55:40;;;;;;;23.33;21.92;;;;;;;;;;5057547;28;20036;-69
2022/06/27 06:58:05;;;;;;;25.15;23.80;;;;;;;;;;5059692;28;20094;-70
2022/06/27 07:00:31;;;;;;;30.13;28.58;;;;;;;;;;5056985;28;20048;-70
2022/06/27 07:02:58;;;;;;;20.75;19.55;;;;;;;;;;5058662;28;20151;-70
2022/06/27 07:05:25;;;;;;;19.90;18.80;;;;;;;;;;5054528;28;20033;-70
2022/06/27 07:07:52;;;;;;;28.30;26.80;;;;;;;;;;5053170;28;20040;-70
2022/06/27 07:10:18;;;;;;;20.20;19.10;;;;;;;;;;5055077;28;20028;-68
2022/06/27 07:12:45;;;;;;;24.25;22.88;;;;;;;;;;5058516;28;20033;-71
2022/06/27 07:15:12;;;;;;;16.50;15.50;;;;;;;;;;5056434;28;20055;-69
2022/06/27 07:17:46;;;;;;;18.60;17.58;;;;;;;;;;5056897;28;20478;-69
2022/06/27 07:20:13;;;;;;;18.83;17.80;;;;;;;;;;5057603;28;20040;-68
2022/06/27 07:22:40;;;;;;;23.30;22.05;;;;;;;;;;5062267;28;20044;-68
2022/06/27 07:25:07;;;;;;;26.63;25.20;;;;;;;;;;5054590;28;20158;-69
2022/06/27 07:27:34;;;;;;;22.73;21.52;;;;;;;;;;5057733;28;20040;-68
2022/06/27 07:30:00;;;;;;;35.20;33.33;;;;;;;;;;5057729;28;20032;-68
2022/06/27 07:32:27;;;;;;;24.92;23.60;;;;;;;;;;5053616;28;20710;-68
2022/06/27 07:34:54;;;;;;;33.30;31.58;;;;;;;;;;5055793;28;20417;-67
2022/06/27 07:37:20;;;;;;;26.17;24.77;;;;;;;;;;5055595;28;20122;-67
2022/06/27 07:39:45;;;;;;;18.20;17.20;;;;;;;;;;5055310;28;20032;-68
2022/06/27 07:42:11;;;;;;;20.02;18.92;;;;;;;;;;5058273;28;20047;-67
2022/06/27 07:44:36;;;;;;;21.98;20.77;;;;;;;;;;5054287;28;20628;-68
2022/06/27 07:47:03;;;;;;;41.45;39.35;;;;;;;;;;5056490;28;20043;-68
2022/06/27 07:49:29;;;;;;;49.13;46.65;;;;;;;;;;5058073;28;20063;-68
2022/06/27 07:51:54;;;;;;;45.60;43.28;;;;;;;;;;5056755;28;20539;-68
2022/06/27 07:54:22;;;;;;;53.05;50.33;;;;;;;;;;5059603;28;20035;-67
2022/06/27 07:56:49;;;;;;;56.90;54.03;;;;;;;;;;5058927;28;20051;-67
2022/06/27 07:59:15;;;;;;;46.38;44.03;;;;;;;;;;5058596;28;20105;-67
2022/06/27 08:01:41;;;;;;;30.42;28.83;;;;;;;;;;5057020;28;20060;-67
2022/06/27 08:04:08;;;;;;;58.50;55.55;;;;;;;;;;5058851;28;20055;-65
2022/06/27 08:06:33;;;;;;;52.88;50.17;;;;;;;;;;5054714;28;20033;-66
2022/06/27 08:09:03;;;;;;;54.10;51.38;;;;;;;;;;5053399;28;20721;-66
2022/06/27 08:11:31;;;;;;;33.70;31.90;;;;;;;;;;5052081;28;20128;-66
2022/06/27 08:14:03;;;;;;;47.20;44.75;;;;;;;;;;5055913;28;20535;-66
2022/06/27 08:16:29;;;;;;;55.40;52.60;;;;;;;;;;5053028;28;20051;-66
2022/06/27 08:18:55;;;;;;;52.28;49.28;;;;;;;;;;5053716;28;20032;-66
2022/06/27 08:21:25;;;;;;;25.88;24.48;;;;;;;;;;5055842;28;20028;-65
2022/06/27 08:23:56;;;;;;;30.55;28.90;;;;;;;;;;5054657;28;20040;-66
2022/06/27 08:26:23;;;;;;;22.42;21.20;;;;;;;;;;5055038;28;20033;-66
2022/06/27 08:28:50;;;;;;;22.20;20.95;;;;;;;;;;5054840;28;20048;-66
2022/06/27 08:31:17;;;;;;;17.08;16.08;;;;;;;;;;5054058;28;20055;-66
2022/06/27 08:33:44;;;;;;;19.20;18.10;;;;;;;;;;5051599;28;20037;-66
2022/06/27 08:36:12;;;;;;;20.38;19.27;;;;;;;;;;5052819;28;20071;-66
2022/06/27 08:38:46;;;;;;;18.05;17.05;;;;;;;;;;5052773;28;20036;-66
2022/06/27 08:41:12;;;;;;;28.85;27.35;;;;;;;;;;5056180;28;20118;-66
2022/06/27 08:43:39;;;;;;;23.20;21.92;;;;;;;;;;5050402;28;20131;-65
2022/06/27 08:46:10;;;;;;;23.88;22.58;;;;;;;;;;5051309;28;20028;-65
2022/06/27 08:48:37;;;;;;;78.57;74.70;;;;;;;;;;5049230;28;20082;-65
2022/06/27 08:51:06;;;;;;;76.57;72.78;;;;;;;;;;5052963;28;20037;-65
2022/06/27 08:53:33;;;;;;;25.23;23.85;;;;;;;;;;5049488;28;20037;-65
2022/06/27 08:56:00;;;;;;;30.73;29.13;;;;;;;;;;5052738;28;20032;-64
2022/06/27 08:58:27;;;;;;;32.28;30.58;;;;;;;;;;5051088;28;20414;-65
2022/06/27 09:00:53;;;;;;;80.80;76.80;;;;;;;;;;5057497;28;20060;-65
2022/06/27 09:03:20;;;;;;;29.15;27.65;;;;;;;;;;5051894;28;20351;-72
2022/06/27 09:06:03;;;;;;;49.65;47.05;;;;;;;;;;5051954;28;20068;-72
2022/06/27 09:08:36;;;;;;;67.35;64.00;;;;;;;;;;5060163;28;20036;-72
2022/06/27 09:11:03;;;;;;;47.03;44.63;;;;;;;;;;5051140;28;20032;-71
2022/06/27 09:13:29;;;;;;;27.92;26.45;;;;;;;;;;5042967;28;20025;-71
2022/06/27 09:16:04;;;;;;;41.50;39.28;;;;;;;;;;5046216;28;20071;-70
2022/06/27 09:18:36;;;;;;;21.17;20.00;;;;;;;;;;5051999;28;20054;-70
2022/06/27 09:21:09;;;;;;;23.80;22.50;;;;;;;;;;5052323;28;20029;-70
2022/06/27 09:23:43;;;;;;;40.13;38.08;;;;;;;;;;5049682;28;20597;-71
2022/06/27 09:26:17;;;;;;;27.35;25.90;;;;;;;;;;5055671;28;20062;-70
2022/06/27 09:28:56;;;;;;;24.05;22.75;;;;;;;;;;5051648;28;20043;-70
2022/06/27 09:31:25;;;;;;;28.02;26.52;;;;;;;;;;5051780;28;20056;-71
2022/06/27 09:34:14;;;;;;;25.48;24.15;;;;;;;;;;5048708;28;20040;-70
2022/06/27 09:36:51;;;;;;;54.25;51.55;;;;;;;;;;5046072;28;20040;-70
2022/06/27 09:39:28;;;;;;;78.80;74.88;;;;;;;;;;5050996;28;20036;-70
2022/06/27 09:42:01;;;;;;;61.65;58.55;;;;;;;;;;5052528;28;20068;-70
2022/06/27 09:44:35;;;;;;;70.20;66.70;;;;;;;;;;5054682;28;20028;-70
2022/06/27 09:47:10;;;;;;;74.20;70.53;;;;;;;;;;5054994;28;20112;-71
2022/06/27 09:49:38;;;;;;;72.93;69.32;;;;;;;;;;5047420;28;20040;-71
2022/06/27 09:52:08;;;;;;;74.15;70.40;;;;;;;;;;5047703;28;20060;-70
2022/06/27 09:54:34;;;;;;;;;;;;;;;;;;5048016;28;20032;-71
2022/06/27 09:57:00;;;;;;;78.25;74.38;;;;;;;;;;5054148;28;19920;-71
2022/06/27 09:59:27;;;;;;;62.70;59.58;;;;;;;;;;5052863;28;20037;-72
2022/06/27 10:01:56;;;;;;;73.70;70.00;;;;;;;;;;5053173;28;20048;-71
2022/06/27 10:04:24;;;;;;;76.70;72.90;;;;;;;;;;5050684;28;20044;-71
2022/06/27 10:06:51;;;;;;;73.20;69.55;;;;;;;;;;5054366;28;20036;-71
2022/06/27 10:09:21;;;;;;;76.47;72.70;;;;;;;;;;5059109;28;20028;-70
2022/06/27 10:11:48;;;;;;;;;;;;;;;;;;5057163;28;20140;-70
2022/06/27 10:14:21;;;;;;;72.05;68.50;;;;;;;;;;5055958;28;19920;-71
2022/06/27 10:16:55;;;;;;;53.25;50.58;;;;;;;;;;5057493;28;20504;-70
2022/06/27 10:19:23;;;;;;;54.55;51.83;;;;;;;;;;5057580;28;20048;-70
2022/06/27 10:21:49;;;;;;;67.55;64.18;;;;;;;;;;5056255;28;20033;-62
2022/06/27 10:24:21;;;;;;;63.83;60.60;;;;;;;;;;5055496;28;20047;-63
2022/06/27 10:26:55;;;;;;;63.72;60.55;;;;;;;;;;5056107;28;20040;-63
2022/06/27 10:29:28;;;;;;;59.17;56.17;;;;;;;;;;5052207;28;20029;-62
2022/06/27 10:31:53;;;;;;;98.68;93.82;;;;;;;;;;5050261;28;20040;-63
2022/06/27 10:34:43;;;;;;;79.00;75.10;;;;;;;;;;5056647;28;20052;-62
2022/06/27 10:37:20;;;;;;;71.78;68.20;;;;;;;;;;5056393;28;20032;-62
2022/06/27 10:39:46;;;;;;;75.57;71.88;;;;;;;;;;5051672;28;20127;-63
2022/06/27 10:42:48;;;;;;;68.88;65.45;;;;;;;;;;5056283;28;20113;-62
2022/06/27 10:45:20;;;;;;;56.00;53.20;;;;;;;;;;5056361;28;20040;-63
2022/06/27 10:47:53;;;;;;;57.88;54.88;;;;;;;;;;5054835;28;20089;-62
2022/06/27 10:50:21;;;;;;;53.40;50.72;;;;;;;;;;5058017;28;20058;-63
2022/06/27 10:52:47;;;;;;;60.95;57.90;;;;;;;;;;5055730;28;20063;-62
2022/06/27 10:55:27;;;;;;;49.47;46.97;;;;;;;;;;5055972;28;20032;-62
2022/06/27 10:57:54;;;;;;;48.30;45.85;;;;;;;;;;5057095;28;20035;-63
2022/06/27 11:00:42;;;;;;;53.25;50.45;;;;;;;;;;5054679;28;20044;-62
2022/06/27 11:03:10;;;;;;;37.85;35.95;;;;;;;;;;5053923;28;20020;-62
2022/06/27 11:06:03;;;;;;;36.30;34.42;;;;;;;;;;5055880;28;20110;-62
2022/06/27 11:08:32;;;;;;;44.08;41.72;;;;;;;;;;5054212;28;20045;-61
2022/06/27 11:10:58;;;;;;;51.05;48.45;;;;;;;;;;5054105;28;20569;-61
2022/06/27 11:13:46;;;;;;;52.00;49.35;;;;;;;;;;5057251;28;20074;-62
2022/06/27 11:16:20;;;;;;;56.47;53.65;;;;;;;;;;5057512;28;20041;-61
2022/06/27 11:18:52;;;;;;;55.45;52.65;;;;;;;;;;5055358;28;20171;-62
2022/06/27 11:21:23;;;;;;;51.38;48.78;;;;;;;;;;5052262;28;20496;-62
2022/06/27 11:23:51;;;;;;;33.30;31.60;;;;;;;;;;5056398;28;20072;-61
2022/06/27 11:26:18;;;;;;;36.80;34.90;;;;;;;;;;5053020;28;20091;-60
2022/06/27 11:34:12;;;;;;;28.92;27.38;;;;;;;;;;5051506;28;20032;-61
2022/06/27 11:36:39;;;;;;;29.23;27.63;;;;;;;;;;5053762;28;20108;-60
2022/06/27 11:39:05;;;;;;;31.52;29.92;;;;;;;;;;5052538;28;20037;-61
2022/06/27 11:41:30;;;;;;;34.75;32.95;;;;;;;;;;5054884;28;20041;-60
2022/06/27 11:44:04;;;;;;;39.30;37.30;;;;;;;;;;5057596;28;20033;-61
2022/06/27 11:46:39;;;;;;;32.97;31.27;;;;;;;;;;5052991;28;20032;-62
2022/06/27 11:49:27;;;;;;;36.80;34.90;;;;;;;;;;5051573;28;20059;-61
2022/06/27 11:52:01;;;;;;;42.28;40.08;;;;;;;;;;5053263;28;20110;-62
2022/06/27 11:54:37;;;;;;;43.30;41.10;;;;;;;;;;5058625;28;20028;-60
2022/06/27 11:57:02;;;;;;;38.60;36.60;;;;;;;;;;5055617;28;20033;-62
2022/06/27 11:59:28;;;;;;;54.15;51.42;;;;;;;;;;5055757;28;20029;-61
2022/06/27 12:01:59;;;;;;;65.95;62.65;;;;;;;;;;5056157;28;20042;-61
2022/06/27 12:04:33;;;;;;;51.25;48.67;;;;;;;;;;5055423;28;20050;-63
2022/06/27 12:07:04;;;;;;;67.32;63.97;;;;;;;;;;5056599;28;20631;-62
2022/06/27 12:09:30;;;;;;;66.05;62.78;;;;;;;;;;5052659;28;20788;-61
2022/06/27 12:12:04;;;;;;;60.92;57.90;;;;;;;;;;5057503;28;20538;-62
2022/06/27 12:14:31;;;;;;;80.32;76.38;;;;;;;;;;5053321;28;20074;-61
2022/06/27 12:16:59;;;;;;;80.53;76.55;;;;;;;;;;5052453;28;20052;-60
2022/06/27 12:19:26;;;;;;;85.13;80.90;;;;;;;;;;5054289;28;20024;-60
2022/06/27 12:21:52;;;;;;;68.80;65.40;;;;;;;;;;5054943;28;20048;-59
2022/06/27 12:24:18;;;;;;;83.40;79.30;;;;;;;;;;5052813;28;20033;-60
2022/06/27 12:26:43;;;;;;;91.95;87.43;;;;;;;;;;5055234;28;21517;-60
2022/06/27 12:29:10;;;;;;;94.05;89.40;;;;;;;;;;5058123;28;20040;-60
2022/06/27 12:31:36;;;;;;;112.03;106.53;;;;;;;;;;5054115;28;20037;-60
2022/06/27 12:34:03;;;;;;;78.45;74.60;;;;;;;;;;5052454;28;20072;-60
2022/06/27 12:36:30;;;;;;;76.38;72.63;;;;;;;;;;5054903;28;20040;-60
2022/06/27 12:38:56;;;;;;;75.70;71.95;;;;;;;;;;5056051;28;20047;-60
2022/06/27 12:41:21;;;;;;;93.05;88.47;;;;;;;;;;5056401;28;20215;-59
2022/06/27 12:43:47;;;;;;;77.82;73.97;;;;;;;;;;5055876;28;20146;-60
2022/06/27 12:46:15;;;;;;;62.20;59.08;;;;;;;;;;5054579;28;20425;-60
2022/06/27 12:48:41;;;;;;;109.60;104.22;;;;;;;;;;5054633;28;20044;-61
2022/06/27 12:51:07;;;;;;;120.20;114.32;;;;;;;;;;5053215;28;20040;-61
2022/06/27 12:53:33;;;;;;;98.72;93.90;;;;;;;;;;5054861;28;20115;-61
2022/06/27 12:56:01;;;;;;;139.05;132.25;;;;;;;;;;5056244;28;20681;-61
2022/06/27 12:58:27;;;;;;;100.25;95.32;;;;;;;;;;5055461;28;20120;-60
2022/06/27 13:00:53;;;;;;;102.43;97.40;;;;;;;;;;5053032;28;20065;-61
2022/06/27 13:03:18;;;;;;;101.85;96.88;;;;;;;;;;5053739;28;20067;-61
2022/06/27 13:05:44;;;;;;;103.35;98.25;;;;;;;;;;5050911;28;20173;-61
2022/06/27 13:08:09;;;;;;;62.67;59.53;;;;;;;;;;5055217;28;20037;-61
2022/06/27 13:10:35;;;;;;;59.95;56.58;;;;;;;;;;5055912;28;20123;-61
2022/06/27 13:13:02;;;;;;;55.65;52.85;;;;;;;;;;5054512;28;20506;-60
2022/06/27 13:15:29;;;;;;;52.55;49.92;;;;;;;;;;5050845;28;20033;-60
2022/06/27 13:17:55;;;;;;;50.13;47.60;;;;;;;;;;5053321;28;20455;-61
2022/06/27 13:20:20;;;;;;;60.05;57.03;;;;;;;;;;5051552;28;20040;-60
2022/06/27 13:22:46;;;;;;;103.55;98.47;;;;;;;;;;5054664;28;20047;-61
2022/06/27 13:25:11;;;;;;;115.75;110.07;;;;;;;;;;5051369;28;20674;-61
2022/06/27 13:27:37;;;;;;;148.95;141.60;;;;;;;;;;5054426;28;20115;-61
2022/06/27 13:30:04;;;;;;;139.52;132.70;;;;;;;;;;5057678;28;20033;-61
2022/06/27 13:32:30;;;;;;;158.00;150.30;;;;;;;;;;5056884;28;20477;-61
2022/06/27 13:34:55;;;;;;;154.63;147.05;;;;;;;;;;5059004;28;20048;-60
2022/06/27 13:37:21;;;;;;;109.40;104.03;;;;;;;;;;5057095;28;20094;-60
2022/06/27 13:39:46;;;;;;;128.88;122.53;;;;;;;;;;5058742;28;20045;-60
2022/06/27 13:42:11;;;;;;;143.52;136.48;;;;;;;;;;5053249;28;20601;-60
2022/06/27 13:44:37;;;;;;;106.53;101.28;;;;;;;;;;5058099;28;20028;-60
2022/06/27 13:47:03;;;;;;;98.07;93.22;;;;;;;;;;5058621;28;20036;-60
2022/06/27 13:49:28;;;;;;;91.25;86.78;;;;;;;;;;5054092;28;20123;-60
2022/06/27 13:51:54;;;;;;;99.55;94.68;;;;;;;;;;5059223;28;20429;-61
2022/06/27 13:54:19;;;;;;;97.15;92.40;;;;;;;;;;5059092;28;20044;-60
2022/06/27 13:56:45;;;;;;;114.82;109.20;;;;;;;;;;5058419;28;20032;-66
2022/06/27 13:59:13;;;;;;;120.78;114.80;;;;;;;;;;5056620;28;20466;-65
2022/06/27 14:01:42;;;;;;;88.30;83.95;;;;;;;;;;5055963;28;20151;-65
2022/06/27 14:04:08;;;;;;;95.65;90.93;;;;;;;;;;5056615;28;20302;-66
2022/06/27 14:09:17;;;;;;;101.10;96.15;;;;;;;;;;5051885;28;20502;-65
2022/06/27 14:11:43;;;;;;;121.97;115.95;;;;;;;;;;5054878;28;20039;-65
2022/06/27 14:14:08;;;;;;;113.07;107.53;;;;;;;;;;5059489;28;20036;-65
2022/06/27 14:16:34;;;;;;;127.18;120.88;;;;;;;;;;5055686;28;20144;-65
2022/06/27 14:19:01;;;;;;;117.03;111.25;;;;;;;;;;5054267;28;20045;-65
2022/06/27 14:21:27;;;;;;;117.55;111.75;;;;;;;;;;5059885;28;20133;-65
2022/06/27 14:23:52;;;;;;;118.90;113.03;;;;;;;;;;5057443;28;20032;-64
2022/06/27 14:26:18;;;;;;;105.68;100.47;;;;;;;;;;5056655;28;20036;-64
2022/06/27 14:28:43;;;;;;;126.10;119.90;;;;;;;;;;5062947;28;20131;-65